Time;durP1;ratioP1;P1;durP2;ratioP2;P2;SDS_P1;SDS_P2;PMS_P1;PMS_P2;Temp;Humidity;BMP_temperature;BMP_pressure;BME280_temperature;BME280_humidity;BME280_pressure;Samples;Min_cycle;Max_cycle;Signal;HPM_P1;HPM_P2
2023/01/10 00:02:13;;;;;;;13.13;7.33;;;8.70;99.90;;;;;;5071857;28;20202;-61
2023/01/10 00:04:40;;;;;;;9.37;6.30;;;8.70;99.90;;;;;;5068904;28;20209;-61
2023/01/10 00:07:07;;;;;;;9.03;6.00;;;8.80;99.90;;;;;;5068650;28;20198;-61
2023/01/10 00:09:34;;;;;;;12.03;6.97;;;8.70;99.90;;;;;;5067048;28;20214;-61
2023/01/10 00:14:46;;;;;;;11.97;7.10;;;8.70;99.90;;;;;;5069452;28;20688;-61
2023/01/10 00:17:14;;;;;;;9.77;6.80;;;8.70;99.90;;;;;;5069080;28;20207;-60
2023/01/10 00:19:41;;;;;;;11.03;7.23;;;8.70;99.90;;;;;;5063880;28;20200;-60
2023/01/10 00:22:21;;;;;;;11.13;7.03;;;8.60;99.90;;;;;;5065516;28;21306;-60
2023/01/10 00:24:48;;;;;;;9.40;5.67;;;8.60;99.90;;;;;;5067808;28;20655;-61
2023/01/10 00:27:20;;;;;;;8.70;5.33;;;8.60;99.90;;;;;;5070661;28;20200;-60
2023/01/10 00:29:49;;;;;;;6.97;4.93;;;8.60;99.90;;;;;;5066810;28;20257;-61
2023/01/10 00:32:18;;;;;;;9.47;5.77;;;8.60;99.90;;;;;;5066726;28;20191;-61
2023/01/10 00:34:45;;;;;;;7.03;4.83;;;8.60;99.90;;;;;;5067439;28;20189;-61
2023/01/10 00:37:13;;;;;;;7.80;4.87;;;8.70;99.90;;;;;;5066875;28;20190;-61
2023/01/10 00:39:40;;;;;;;7.83;5.00;;;8.60;99.90;;;;;;5066290;28;20206;-62
2023/01/10 00:44:52;;;;;;;5.37;4.13;;;8.70;99.90;;;;;;5069722;28;20196;-61
2023/01/10 00:47:20;;;;;;;5.83;4.40;;;8.80;99.90;;;;;;5069316;28;20236;-61
2023/01/10 00:49:47;;;;;;;5.77;4.20;;;8.80;99.90;;;;;;5073036;28;20283;-61
2023/01/10 00:52:14;;;;;;;4.83;3.60;;;8.80;99.90;;;;;;5072449;28;20238;-61
2023/01/10 00:54:42;;;;;;;8.40;5.00;;;8.80;99.90;;;;;;5073492;28;20560;-60
2023/01/10 00:57:09;;;;;;;4.07;3.53;;;8.90;99.90;;;;;;5072540;28;20189;-60
2023/01/10 00:59:36;;;;;;;4.07;3.60;;;8.90;99.90;;;;;;5073484;28;20201;-61
2023/01/10 01:02:03;;;;;;;4.50;3.43;;;8.90;99.90;;;;;;5071464;28;20205;-61
2023/01/10 01:04:33;;;;;;;3.50;3.20;;;9.00;99.90;;;;;;5072553;28;20222;-61
2023/01/10 01:07:01;;;;;;;4.67;3.80;;;9.00;99.90;;;;;;5069836;28;20625;-61
2023/01/10 01:09:28;;;;;;;3.77;3.00;;;9.00;99.90;;;;;;5070197;28;20559;-61
2023/01/10 01:11:56;;;;;;;3.87;3.10;;;9.00;99.90;;;;;;5071599;28;20239;-60
2023/01/10 01:14:23;;;;;;;3.17;2.87;;;9.10;99.90;;;;;;5072348;28;20563;-60
2023/01/10 01:16:50;;;;;;;3.57;3.03;;;9.10;99.90;;;;;;5073333;28;20197;-61
2023/01/10 01:19:17;;;;;;;2.90;2.63;;;9.10;99.90;;;;;;5071986;28;20228;-60
2023/01/10 01:21:46;;;;;;;3.60;3.10;;;9.10;99.90;;;;;;5068768;28;20210;-60
2023/01/10 01:24:13;;;;;;;3.77;3.40;;;9.10;99.90;;;;;;5071148;28;20276;-60
2023/01/10 01:26:41;;;;;;;4.17;3.77;;;9.10;99.90;;;;;;5068296;28;20226;-60
2023/01/10 01:29:09;;;;;;;4.30;3.60;;;9.10;99.90;;;;;;5070333;28;20225;-60
2023/01/10 01:31:36;;;;;;;3.67;3.33;;;9.20;99.90;;;;;;5071737;28;20195;-61
2023/01/10 01:34:04;;;;;;;3.87;3.30;;;9.10;99.90;;;;;;5071589;28;20199;-61
2023/01/10 01:36:31;;;;;;;3.40;3.10;;;9.20;99.90;;;;;;5071451;28;20274;-61
2023/01/10 01:38:59;;;;;;;4.73;3.30;;;9.20;99.90;;;;;;5071323;28;20247;-62
2023/01/10 01:44:16;;;;;;;6.77;4.63;;;9.20;99.90;;;;;;5071592;28;20197;-61
2023/01/10 01:46:45;;;;;;;6.33;4.17;;;9.20;99.90;;;;;;5072732;28;20276;-60
2023/01/10 01:49:18;;;;;;;4.97;3.27;;;9.30;99.90;;;;;;5070832;28;20650;-61
2023/01/10 01:51:47;;;;;;;3.47;2.90;;;9.20;99.90;;;;;;5073414;28;20203;-61
2023/01/10 01:54:17;;;;;;;3.43;2.90;;;9.20;99.90;;;;;;5071768;28;20880;-61
2023/01/10 01:56:50;;;;;;;3.70;2.93;;;9.20;99.90;;;;;;5072539;28;20672;-62
2023/01/10 01:59:22;;;;;;;3.23;2.60;;;9.20;99.90;;;;;;5070265;28;20213;-62
2023/01/10 02:01:52;;;;;;;3.20;2.90;;;9.20;99.90;;;;;;5069773;28;20681;-62
2023/01/10 02:04:23;;;;;;;7.20;4.33;;;9.20;99.90;;;;;;5066037;28;20193;-61
2023/01/10 02:06:53;;;;;;;5.43;3.93;;;9.10;99.90;;;;;;5072781;28;20565;-61
2023/01/10 02:09:26;;;;;;;5.30;3.87;;;9.20;99.90;;;;;;5072050;28;20224;-61
2023/01/10 02:11:54;;;;;;;7.40;4.33;;;9.10;99.90;;;;;;5073362;28;20632;-61
2023/01/10 02:14:24;;;;;;;4.97;3.80;;;9.20;99.90;;;;;;5070795;28;20185;-61
2023/01/10 02:16:52;;;;;;;4.33;3.57;;;9.10;99.90;;;;;;5071214;28;20199;-61
2023/01/10 02:19:29;;;;;;;5.70;4.03;;;9.20;99.90;;;;;;5070081;28;20254;-60
2023/01/10 02:22:34;;;;;;;9.07;4.60;;;9.20;99.90;;;;;;5069323;28;20256;-60
2023/01/10 02:25:46;;;;;;;6.90;4.37;;;9.10;99.90;;;;;;5015099;28;20306;-61
2023/01/10 02:28:32;;;;;;;6.63;4.80;;;9.10;99.90;;;;;;5071572;28;20258;-61
2023/01/10 02:31:25;;;;;;;6.43;4.10;;;9.10;99.90;;;;;;5073777;28;20189;-60
2023/01/10 02:34:00;;;;;;;4.57;3.70;;;9.10;99.90;;;;;;5072198;28;20188;-60
2023/01/10 02:36:36;;;;;;;5.90;3.57;;;9.10;99.90;;;;;;5071119;28;20193;-61
2023/01/10 02:39:11;;;;;;;6.83;4.40;;;9.10;99.90;;;;;;5071578;28;20210;-61
2023/01/10 02:41:45;;;;;;;4.77;3.50;;;9.10;99.90;;;;;;5067771;28;20209;-61
2023/01/10 02:44:21;;;;;;;5.50;4.00;;;9.10;99.90;;;;;;5069050;28;20628;-60
2023/01/10 02:46:49;;;;;;;3.90;3.20;;;9.10;99.90;;;;;;5070851;28;20221;-61
2023/01/10 02:49:18;;;;;;;6.07;3.73;;;9.10;99.90;;;;;;5071882;28;20192;-60
2023/01/10 02:51:45;;;;;;;4.83;3.47;;;9.10;99.90;;;;;;5071590;28;20195;-60
2023/01/10 02:54:17;;;;;;;3.77;2.97;;;9.10;99.90;;;;;;5069201;28;20313;-60
2023/01/10 02:57:10;;;;;;;4.77;3.50;;;9.10;99.90;;;;;;5072962;28;20192;-60
2023/01/10 03:00:03;;;;;;;3.10;2.80;;;9.10;99.90;;;;;;5068982;28;20212;-61
2023/01/10 03:02:44;;;;;;;4.37;3.33;;;9.10;99.90;;;;;;5071685;28;20190;-60
2023/01/10 03:05:32;;;;;;;3.90;3.40;;;9.10;99.90;;;;;;5068887;28;20265;-60
2023/01/10 03:08:10;;;;;;;4.17;3.30;;;9.10;99.90;;;;;;5071766;28;20247;-62
2023/01/10 03:10:42;;;;;;;5.40;3.97;;;9.10;99.90;;;;;;5069159;28;20194;-60
2023/01/10 03:13:16;;;;;;;4.30;3.47;;;9.10;99.90;;;;;;5070320;28;20213;-60
2023/01/10 03:15:45;;;;;;;4.17;3.23;;;9.10;99.90;;;;;;5071911;28;20220;-60
2023/01/10 03:18:17;;;;;;;4.77;3.17;;;9.10;99.90;;;;;;5073540;28;20209;-60
2023/01/10 03:20:49;;;;;;;3.90;3.03;;;9.00;99.90;;;;;;5069094;28;20197;-61
2023/01/10 03:23:18;;;;;;;2.73;2.53;;;9.00;99.90;;;;;;5069434;28;20650;-61
2023/01/10 03:25:48;;;;;;;5.60;3.90;;;9.00;99.90;;;;;;5068649;28;20223;-62
2023/01/10 03:28:19;;;;;;;3.30;3.00;;;9.00;99.90;;;;;;5069349;28;20206;-61
2023/01/10 03:30:52;;;;;;;4.83;3.20;;;9.00;99.90;;;;;;5070311;28;20718;-61
2023/01/10 03:33:24;;;;;;;3.77;2.87;;;9.00;99.90;;;;;;5069323;28;20227;-62
2023/01/10 03:36:04;;;;;;;3.10;2.80;;;9.00;99.90;;;;;;5068869;28;20260;-61
2023/01/10 03:38:41;;;;;;;3.90;3.30;;;9.00;99.90;;;;;;5068750;28;20676;-61
2023/01/10 03:41:15;;;;;;;3.30;2.90;;;9.00;99.90;;;;;;5066656;28;20603;-61
2023/01/10 03:46:49;;;;;;;4.40;2.80;;;8.90;99.90;;;;;;5046035;28;20653;-61
2023/01/10 03:49:18;;;;;;;4.70;3.50;;;9.00;99.90;;;;;;5064595;28;20214;-61
2023/01/10 03:51:47;;;;;;;3.93;3.00;;;9.00;99.90;;;;;;5069410;28;20209;-61
2023/01/10 03:54:16;;;;;;;3.43;3.13;;;8.90;99.90;;;;;;5069007;28;20197;-61
2023/01/10 03:56:48;;;;;;;3.03;2.73;;;8.90;99.90;;;;;;5068481;28;20189;-61
2023/01/10 03:59:16;;;;;;;8.10;4.73;;;8.90;99.90;;;;;;5068149;28;20201;-61
2023/01/10 04:01:43;;;;;;;4.70;3.80;;;8.90;99.90;;;;;;5069016;28;20196;-61
2023/01/10 04:04:11;;;;;;;3.90;3.27;;;8.90;99.90;;;;;;5066925;28;20215;-61
2023/01/10 04:06:38;;;;;;;4.70;3.77;;;8.90;99.90;;;;;;5070398;28;20204;-61
2023/01/10 04:09:07;;;;;;;6.97;3.97;;;8.90;99.90;;;;;;5068296;28;20225;-61
2023/01/10 04:11:34;;;;;;;3.53;3.13;;;8.90;99.90;;;;;;5069388;28;20590;-61
2023/01/10 04:14:01;;;;;;;3.80;3.40;;;8.90;99.90;;;;;;5067900;28;20193;-61
2023/01/10 04:16:28;;;;;;;4.10;3.40;;;8.90;99.90;;;;;;5067247;28;20199;-61
2023/01/10 04:18:55;;;;;;;6.73;3.77;;;8.80;99.90;;;;;;5068641;28;20209;-62
2023/01/10 04:21:23;;;;;;;3.90;3.50;;;8.90;99.90;;;;;;5068414;28;20282;-61
2023/01/10 04:23:50;;;;;;;4.47;3.40;;;8.90;99.90;;;;;;5069029;28;20197;-61
2023/01/10 04:26:18;;;;;;;4.10;3.53;;;8.90;99.90;;;;;;5071963;28;20233;-61
2023/01/10 04:28:45;;;;;;;4.13;3.57;;;8.90;99.90;;;;;;5068183;28;20186;-61
2023/01/10 04:31:12;;;;;;;5.27;3.70;;;8.90;99.90;;;;;;5068810;28;20223;-61
2023/01/10 04:33:40;;;;;;;5.07;3.97;;;8.80;99.90;;;;;;5069753;28;20199;-61
2023/01/10 04:36:07;;;;;;;4.70;3.60;;;8.90;99.90;;;;;;5068872;28;20194;-61
2023/01/10 04:38:35;;;;;;;4.70;3.70;;;8.90;99.90;;;;;;5068980;28;20216;-61
2023/01/10 04:41:02;;;;;;;9.97;3.67;;;8.90;99.90;;;;;;5068994;28;20224;-61
2023/01/10 04:43:30;;;;;;;2.63;2.43;;;8.90;99.90;;;;;;5071698;28;20195;-61
2023/01/10 04:45:57;;;;;;;4.03;2.83;;;8.90;99.90;;;;;;5069186;28;20187;-61
2023/01/10 04:48:25;;;;;;;3.67;3.33;;;8.90;99.90;;;;;;5069697;28;20647;-60
2023/01/10 04:50:53;;;;;;;3.90;3.10;;;8.90;99.90;;;;;;5069714;28;20248;-60
2023/01/10 04:53:21;;;;;;;3.87;3.10;;;8.90;99.90;;;;;;5069930;28;20198;-60
2023/01/10 04:55:48;;;;;;;5.37;3.50;;;8.90;99.90;;;;;;5068846;28;20213;-60
2023/01/10 04:58:15;;;;;;;4.80;3.43;;;8.90;99.90;;;;;;5069469;28;20190;-60
2023/01/10 05:00:44;;;;;;;4.47;3.27;;;8.90;99.90;;;;;;5070648;28;20290;-60
2023/01/10 05:03:11;;;;;;;4.57;3.50;;;8.90;99.90;;;;;;5069193;28;20190;-60
2023/01/10 05:05:38;;;;;;;3.53;3.00;;;8.90;99.90;;;;;;5071001;28;20197;-60
2023/01/10 05:08:05;;;;;;;3.80;3.27;;;8.90;99.90;;;;;;5068435;28;20247;-60
2023/01/10 05:10:32;;;;;;;3.07;2.77;;;8.90;99.90;;;;;;5070421;28;20216;-60
2023/01/10 05:13:00;;;;;;;2.60;2.40;;;8.90;99.90;;;;;;5066768;28;20200;-60
2023/01/10 05:15:27;;;;;;;3.60;2.90;;;8.90;99.90;;;;;;5068471;28;20276;-60
2023/01/10 05:17:59;;;;;;;2.97;2.60;;;8.90;99.90;;;;;;5068465;28;20193;-61
2023/01/10 05:20:26;;;;;;;2.53;2.33;;;8.90;99.90;;;;;;5066780;28;20210;-61
2023/01/10 05:22:53;;;;;;;3.80;2.70;;;9.00;99.90;;;;;;5068017;28;20198;-61
2023/01/10 05:25:21;;;;;;;3.27;2.60;;;9.00;99.90;;;;;;5069620;28;20231;-61
2023/01/10 05:27:48;;;;;;;3.57;3.03;;;9.00;99.90;;;;;;5065961;28;20213;-61
2023/01/10 05:30:15;;;;;;;3.33;2.60;;;9.00;99.90;;;;;;5070128;28;20193;-61
2023/01/10 05:32:42;;;;;;;2.83;2.57;;;9.00;99.90;;;;;;5073500;28;20673;-62
2023/01/10 05:35:11;;;;;;;3.87;2.27;;;9.00;99.90;;;;;;5072646;28;20209;-62
2023/01/10 05:37:38;;;;;;;4.40;2.70;;;9.00;99.90;;;;;;5072075;28;20197;-61
2023/01/10 05:40:06;;;;;;;3.37;2.83;;;9.00;99.90;;;;;;5072920;28;20210;-61
2023/01/10 05:42:34;;;;;;;3.50;2.60;;;9.00;99.90;;;;;;5070213;28;20199;-61
2023/01/10 05:45:01;;;;;;;2.50;2.20;;;9.00;99.90;;;;;;5073031;28;20193;-61
2023/01/10 05:47:28;;;;;;;6.33;2.60;;;9.00;99.90;;;;;;5071239;28;20191;-61
2023/01/10 05:49:55;;;;;;;3.00;2.47;;;9.00;99.90;;;;;;5073181;28;20193;-61
2023/01/10 05:52:24;;;;;;;3.57;2.50;;;9.00;99.90;;;;;;5073378;28;20203;-61
2023/01/10 05:54:51;;;;;;;2.60;2.33;;;9.00;99.90;;;;;;5072631;28;20661;-61
2023/01/10 05:57:18;;;;;;;5.40;2.60;;;9.00;99.90;;;;;;5073615;28;20190;-61
2023/01/10 05:59:45;;;;;;;3.07;2.20;;;9.10;99.90;;;;;;5074227;28;20292;-61
2023/01/10 06:02:13;;;;;;;2.63;2.40;;;9.00;99.90;;;;;;5072533;28;20220;-61
2023/01/10 06:04:40;;;;;;;2.93;2.70;;;9.00;99.90;;;;;;5071617;28;20199;-61
2023/01/10 06:07:07;;;;;;;3.97;2.53;;;9.10;99.90;;;;;;5073859;28;20191;-60
2023/01/10 06:09:35;;;;;;;5.07;3.17;;;9.10;99.90;;;;;;5072514;28;20697;-60
2023/01/10 06:12:02;;;;;;;4.60;3.40;;;9.10;99.90;;;;;;5071024;28;20655;-60
2023/01/10 06:14:30;;;;;;;2.87;2.60;;;9.10;99.90;;;;;;5073399;28;20682;-61
2023/01/10 06:16:57;;;;;;;3.17;2.67;;;9.10;99.90;;;;;;5073537;28;20225;-62
2023/01/10 06:19:24;;;;;;;3.60;2.57;;;9.10;99.90;;;;;;5070247;28;20220;-61
2023/01/10 06:21:51;;;;;;;2.83;2.50;;;9.10;99.90;;;;;;5071637;28;20195;-61
2023/01/10 06:24:18;;;;;;;2.97;2.40;;;9.10;99.90;;;;;;5071009;28;20551;-61
2023/01/10 06:26:47;;;;;;;2.73;2.27;;;9.10;99.90;;;;;;5071372;28;20285;-62
2023/01/10 06:29:14;;;;;;;4.63;2.70;;;9.10;99.90;;;;;;5070221;28;20524;-60
2023/01/10 06:31:41;;;;;;;4.30;2.90;;;9.10;99.90;;;;;;5072887;28;20194;-60
2023/01/10 06:34:08;;;;;;;3.80;2.67;;;9.10;99.90;;;;;;5072255;28;20705;-60
2023/01/10 06:36:35;;;;;;;3.53;2.70;;;9.10;99.90;;;;;;5069785;28;20197;-60
2023/01/10 06:39:02;;;;;;;2.73;2.20;;;9.00;99.90;;;;;;5072238;28;20205;-61
2023/01/10 06:41:29;;;;;;;3.40;2.97;;;9.00;99.90;;;;;;5072936;28;20402;-60
2023/01/10 06:43:58;;;;;;;3.87;2.87;;;9.00;99.90;;;;;;5068010;28;20200;-61
2023/01/10 06:46:25;;;;;;;3.40;2.80;;;9.00;99.90;;;;;;5071737;28;20193;-60
2023/01/10 06:48:52;;;;;;;2.87;2.60;;;9.00;99.90;;;;;;5070762;28;20195;-61
2023/01/10 06:51:19;;;;;;;3.00;2.70;;;9.00;99.90;;;;;;5072185;28;20239;-61
2023/01/10 06:53:46;;;;;;;3.87;2.20;;;9.00;99.90;;;;;;5072125;28;20202;-61
2023/01/10 06:56:13;;;;;;;3.60;2.53;;;9.00;99.90;;;;;;5071956;28;20193;-61
2023/01/10 06:58:40;;;;;;;5.53;3.43;;;9.00;99.90;;;;;;5072377;28;20220;-61
2023/01/10 07:01:14;;;;;;;4.23;2.87;;;9.00;99.90;;;;;;5071693;28;20214;-61
2023/01/10 07:03:41;;;;;;;4.23;3.17;;;9.00;99.90;;;;;;5070629;28;20202;-61
2023/01/10 07:06:09;;;;;;;5.57;3.90;;;9.00;99.90;;;;;;5071677;28;20270;-61
2023/01/10 07:08:36;;;;;;;6.10;3.50;;;9.00;99.90;;;;;;5071483;28;20197;-61
2023/01/10 07:11:03;;;;;;;4.27;3.30;;;9.00;99.90;;;;;;5064407;28;20199;-61
2023/01/10 07:13:30;;;;;;;3.00;2.70;;;9.00;99.90;;;;;;5067288;28;20251;-61
2023/01/10 07:16:02;;;;;;;4.73;3.50;;;9.00;99.90;;;;;;5066974;28;20196;-61
2023/01/10 07:18:31;;;;;;;5.97;3.80;;;9.00;99.90;;;;;;5060033;28;20213;-61
2023/01/10 07:20:58;;;;;;;9.20;4.10;;;9.00;99.90;;;;;;5067951;28;20278;-61
2023/01/10 07:23:25;;;;;;;8.07;5.33;;;9.00;99.90;;;;;;5068311;28;20561;-61
2023/01/10 07:25:52;;;;;;;13.47;5.50;;;8.90;99.90;;;;;;5069100;28;20235;-60
2023/01/10 07:28:19;;;;;;;11.43;5.93;;;8.90;99.90;;;;;;5070383;28;20267;-60
2023/01/10 07:30:46;;;;;;;8.47;4.60;;;8.90;99.90;;;;;;5068376;28;20659;-61
2023/01/10 07:33:13;;;;;;;6.80;4.40;;;8.90;99.90;;;;;;5068381;28;20599;-61
2023/01/10 07:35:42;;;;;;;6.13;4.03;;;8.90;99.90;;;;;;5069183;28;20196;-60
2023/01/10 07:38:09;;;;;;;5.93;3.70;;;8.80;99.90;;;;;;5068480;28;20218;-60
2023/01/10 07:40:36;;;;;;;3.77;3.17;;;8.80;99.90;;;;;;5067355;28;20218;-61
2023/01/10 07:43:03;;;;;;;7.27;4.00;;;8.90;99.90;;;;;;5067091;28;20195;-61
2023/01/10 07:45:31;;;;;;;6.80;4.10;;;8.90;99.90;;;;;;5068583;28;20193;-61
2023/01/10 07:47:59;;;;;;;6.67;3.93;;;8.90;99.90;;;;;;5067380;28;20617;-61
2023/01/10 07:50:27;;;;;;;5.70;3.57;;;8.90;99.90;;;;;;5068953;28;20687;-61
2023/01/10 07:52:57;;;;;;;6.03;3.57;;;8.90;99.90;;;;;;5069314;28;20199;-61
2023/01/10 07:55:27;;;;;;;5.30;3.37;;;9.00;99.90;;;;;;5067771;28;20205;-62
2023/01/10 07:57:54;;;;;;;4.83;3.40;;;9.00;99.90;;;;;;5065782;28;20189;-61
2023/01/10 08:00:22;;;;;;;5.47;2.90;;;8.20;99.90;;;;;;5066665;28;20704;-61
2023/01/10 08:02:53;;;;;;;3.57;3.00;;;9.00;99.90;;;;;;5067662;28;20221;-61
2023/01/10 08:05:20;;;;;;;3.07;2.67;;;9.10;99.90;;;;;;5065137;28;20808;-62
2023/01/10 08:07:47;;;;;;;3.03;2.63;;;9.10;99.90;;;;;;5066148;28;20612;-61
2023/01/10 08:10:17;;;;;;;7.87;3.57;;;9.10;99.90;;;;;;5065929;28;20198;-62
2023/01/10 08:12:44;;;;;;;4.67;3.43;;;9.10;99.90;;;;;;5065799;28;20209;-60
2023/01/10 08:15:12;;;;;;;4.83;3.53;;;9.10;99.90;;;;;;5068673;28;20266;-61
2023/01/10 08:17:39;;;;;;;7.23;3.80;;;9.10;99.90;;;;;;5067251;28;20194;-61
2023/01/10 08:20:07;;;;;;;6.40;4.17;;;9.10;99.90;;;;;;5067853;28;20293;-61
2023/01/10 08:22:35;;;;;;;6.30;3.97;;;9.10;99.90;;;;;;5067409;28;20627;-61
2023/01/10 08:25:02;;;;;;;3.20;2.90;;;9.10;99.90;;;;;;5068518;28;20230;-61
2023/01/10 08:27:30;;;;;;;4.10;3.50;;;9.10;99.90;;;;;;5065425;28;20196;-61
2023/01/10 08:29:58;;;;;;;5.10;3.43;;;9.10;99.90;;;;;;5067276;28;20616;-61
2023/01/10 08:32:25;;;;;;;7.47;3.73;;;9.10;99.90;;;;;;5064991;28;20203;-61
2023/01/10 08:34:52;;;;;;;7.07;3.70;;;9.10;99.90;;;;;;5067427;28;20206;-61
2023/01/10 08:37:19;;;;;;;9.73;4.47;;;9.20;99.90;;;;;;5067380;28;20699;-61
2023/01/10 08:39:46;;;;;;;10.30;4.83;;;9.20;99.90;;;;;;5067668;28;20195;-61
2023/01/10 08:42:15;;;;;;;8.57;5.23;;;9.10;99.90;;;;;;5066743;28;20194;-61
2023/01/10 08:44:43;;;;;;;9.87;5.30;;;9.10;99.90;;;;;;5066529;28;20284;-61
2023/01/10 08:47:11;;;;;;;8.90;4.73;;;9.10;99.90;;;;;;5067730;28;20214;-61
2023/01/10 08:49:38;;;;;;;11.03;4.93;;;9.10;99.90;;;;;;5068031;28;20193;-61
2023/01/10 08:52:05;;;;;;;9.23;5.23;;;9.10;99.90;;;;;;5067856;28;20678;-61
2023/01/10 08:54:32;;;;;;;8.37;4.90;;;9.10;99.90;;;;;;5066542;28;20223;-61
2023/01/10 08:56:59;;;;;;;9.40;4.60;;;9.10;99.90;;;;;;5066841;28;20195;-61
2023/01/10 08:59:26;;;;;;;8.33;4.63;;;9.10;99.90;;;;;;5064647;28;20195;-61
2023/01/10 09:01:57;;;;;;;10.60;5.77;;;9.10;99.90;;;;;;5066759;28;20222;-61
2023/01/10 09:04:25;;;;;;;11.83;4.73;;;9.20;99.90;;;;;;5064770;28;20193;-61
2023/01/10 09:06:52;;;;;;;10.13;5.43;;;9.20;99.90;;;;;;5066627;28;20207;-61
2023/01/10 09:09:19;;;;;;;8.60;5.13;;;9.10;99.90;;;;;;5073663;28;20197;-60
2023/01/10 09:11:46;;;;;;;10.60;5.60;;;9.20;99.90;;;;;;5074037;28;20576;-60
2023/01/10 09:14:13;;;;;;;7.07;4.93;;;9.10;99.90;;;;;;5067285;28;20197;-60
2023/01/10 09:16:41;;;;;;;7.00;4.67;;;9.10;99.90;;;;;;5070527;28;20249;-60
2023/01/10 09:19:09;;;;;;;6.07;4.30;;;9.10;99.90;;;;;;5065645;28;20192;-60
2023/01/10 09:21:36;;;;;;;6.00;4.03;;;9.10;99.90;;;;;;5071710;28;20219;-60
2023/01/10 09:24:04;;;;;;;6.23;4.00;;;9.10;99.90;;;;;;5069926;28;20240;-61
2023/01/10 09:26:31;;;;;;;6.57;3.50;;;9.20;99.90;;;;;;5070414;28;20232;-60
2023/01/10 09:28:58;;;;;;;4.40;3.70;;;9.20;99.90;;;;;;5071945;28;20291;-60
2023/01/10 09:31:25;;;;;;;5.73;3.80;;;9.20;99.90;;;;;;5071380;28;20196;-61
2023/01/10 09:33:52;;;;;;;5.00;3.93;;;9.20;99.90;;;;;;5070592;28;20286;-61
2023/01/10 09:36:21;;;;;;;5.70;3.67;;;9.20;99.90;;;;;;5069980;28;20199;-61
2023/01/10 09:38:48;;;;;;;4.83;3.43;;;9.30;99.90;;;;;;5070859;28;20218;-60
2023/01/10 09:41:43;;;;;;;6.67;4.50;;;9.30;99.90;;;;;;5069115;28;20219;-61
2023/01/10 09:44:19;;;;;;;6.50;3.93;;;9.30;99.90;;;;;;5052970;28;20206;-60
2023/01/10 09:46:56;;;;;;;11.53;4.53;;;9.30;99.90;;;;;;5071488;28;20272;-60
2023/01/10 09:49:36;;;;;;;7.63;4.63;;;9.30;99.90;;;;;;5071715;28;20195;-60
2023/01/10 09:52:13;;;;;;;5.87;3.70;;;9.20;99.90;;;;;;5069989;28;20654;-61
2023/01/10 09:54:42;;;;;;;6.10;3.87;;;9.20;99.90;;;;;;5070084;28;20187;-61
2023/01/10 09:57:16;;;;;;;6.83;3.90;;;9.30;99.90;;;;;;5070968;28;20191;-61
2023/01/10 09:59:44;;;;;;;10.27;4.67;;;9.30;99.90;;;;;;5067801;28;20665;-61
2023/01/10 10:02:25;;;;;;;10.70;5.60;;;9.30;99.90;;;;;;5071406;28;20297;-61
2023/01/10 10:05:04;;;;;;;9.97;5.00;;;9.30;99.90;;;;;;5070166;28;20592;-61
2023/01/10 10:07:32;;;;;;;7.53;4.67;;;9.30;99.90;;;;;;5069515;28;20211;-61
2023/01/10 10:10:00;;;;;;;9.27;4.93;;;9.40;99.90;;;;;;5071032;28;20546;-61
2023/01/10 10:12:35;;;;;;;7.97;4.73;;;9.50;99.90;;;;;;5069370;28;20195;-61
2023/01/10 10:15:13;;;;;;;8.20;4.70;;;9.60;99.90;;;;;;5069342;28;20190;-61
2023/01/10 10:17:45;;;;;;;9.47;5.10;;;9.60;99.90;;;;;;5068370;28;20207;-61
2023/01/10 10:20:48;;;;;;;6.60;4.57;;;9.70;99.90;;;;;;5067197;28;20193;-61
2023/01/10 10:23:31;;;;;;;7.90;4.63;;;9.70;99.90;;;;;;5023352;28;20215;-61
2023/01/10 10:26:07;;;;;;;6.83;4.60;;;9.70;99.90;;;;;;5069452;28;20224;-61
2023/01/10 10:29:15;;;;;;;10.93;5.03;;;9.80;99.90;;;;;;5069780;28;20202;-61
2023/01/10 10:32:01;;;;;;;7.87;4.80;;;9.70;99.90;;;;;;5039235;28;20334;-61
2023/01/10 10:34:35;;;;;;;10.77;5.60;;;9.80;99.90;;;;;;5070163;28;20192;-61
2023/01/10 10:37:10;;;;;;;8.97;4.70;;;9.80;99.90;;;;;;5070042;28;20195;-61
2023/01/10 10:39:51;;;;;;;7.50;4.60;;;9.80;99.90;;;;;;5068373;28;20538;-60
2023/01/10 10:42:19;;;;;;;10.77;4.57;;;9.80;99.90;;;;;;5071838;28;20682;-60
2023/01/10 10:44:52;;;;;;;5.47;4.03;;;9.80;99.90;;;;;;5067839;28;20224;-60
2023/01/10 10:47:22;;;;;;;8.50;4.70;;;9.90;99.90;;;;;;5071699;28;20205;-62
2023/01/10 10:49:53;;;;;;;7.83;4.50;;;9.80;99.90;;;;;;5067131;28;20199;-63
2023/01/10 10:52:24;;;;;;;5.47;4.33;;;9.90;99.90;;;;;;5071873;28;20189;-61
2023/01/10 10:54:53;;;;;;;6.70;4.33;;;9.80;99.90;;;;;;5069029;28;20197;-61
2023/01/10 10:57:26;;;;;;;6.50;4.07;;;9.90;99.90;;;;;;5070084;28;20195;-60
2023/01/10 10:59:53;;;;;;;5.43;4.07;;;9.90;99.90;;;;;;5067567;28;20193;-60
2023/01/10 11:02:24;;;;;;;5.13;3.60;;;9.90;99.90;;;;;;5069913;28;20192;-60
2023/01/10 11:04:54;;;;;;;5.90;4.00;;;9.90;99.90;;;;;;5099926;28;20227;-60
2023/01/10 11:07:22;;;;;;;8.23;3.67;;;9.90;99.90;;;;;;5069994;28;20384;-60
2023/01/10 11:09:54;;;;;;;5.00;3.50;;;10.00;99.90;;;;;;5068411;28;20194;-60
2023/01/10 11:12:30;;;;;;;5.90;3.67;;;10.00;99.90;;;;;;5069144;28;20193;-60
2023/01/10 11:14:57;;;;;;;7.30;4.03;;;10.00;99.90;;;;;;5065426;28;20684;-61
2023/01/10 11:17:26;;;;;;;4.90;3.67;;;10.00;99.90;;;;;;5069620;28;20220;-60
2023/01/10 11:20:01;;;;;;;8.80;4.10;;;10.10;99.90;;;;;;5066073;28;20627;-60
2023/01/10 11:22:33;;;;;;;4.60;3.60;;;10.10;99.90;;;;;;5069332;28;20579;-60
2023/01/10 11:25:01;;;;;;;9.17;3.50;;;10.10;99.90;;;;;;5068616;28;20251;-60
2023/01/10 11:27:32;;;;;;;5.23;3.00;;;10.00;99.90;;;;;;5067451;28;20204;-60
2023/01/10 11:30:02;;;;;;;4.60;3.13;;;10.10;99.90;;;;;;5067359;28;20249;-61
2023/01/10 11:32:34;;;;;;;3.30;2.80;;;10.10;99.90;;;;;;5067375;28;20227;-61
2023/01/10 11:35:06;;;;;;;9.27;5.60;;;10.20;99.90;;;;;;5067500;28;20268;-60
2023/01/10 11:37:34;;;;;;;8.63;5.33;;;10.20;99.90;;;;;;5067369;28;20196;-60
2023/01/10 11:40:22;;;;;;;8.17;5.50;;;10.20;99.90;;;;;;5064250;28;20224;-60
2023/01/10 11:42:53;;;;;;;16.37;6.93;;;10.20;99.90;;;;;;5064424;28;20698;-60
2023/01/10 11:45:30;;;;;;;23.70;9.50;;;10.20;99.90;;;;;;5067610;28;20667;-60
2023/01/10 11:48:09;;;;;;;20.30;9.80;;;10.20;99.90;;;;;;5067258;28;20745;-61
2023/01/10 11:50:39;;;;;;;16.67;8.93;;;10.20;99.90;;;;;;5067115;28;20216;-61
2023/01/10 11:53:07;;;;;;;15.70;8.83;;;10.20;99.90;;;;;;5066215;28;20201;-61
2023/01/10 11:55:37;;;;;;;14.37;7.90;;;10.10;99.90;;;;;;5067771;28;20638;-61
2023/01/10 11:58:08;;;;;;;13.63;7.60;;;10.10;99.90;;;;;;5062907;28;20366;-61
2023/01/10 12:00:41;;;;;;;10.73;6.03;;;10.10;99.90;;;;;;5066629;28;20250;-62
2023/01/10 12:03:22;;;;;;;7.50;5.30;;;10.30;99.90;;;;;;5065483;28;20192;-61
2023/01/10 12:05:54;;;;;;;7.33;4.90;;;10.20;99.90;;;;;;5066544;28;20196;-60
2023/01/10 12:08:26;;;;;;;5.50;3.93;;;10.20;99.90;;;;;;5067299;28;20207;-61
2023/01/10 12:11:02;;;;;;;6.70;4.40;;;10.30;99.90;;;;;;5066812;28;20548;-61
2023/01/10 12:13:43;;;;;;;4.97;3.80;;;10.30;99.90;;;;;;5066538;28;20189;-61
2023/01/10 12:16:18;;;;;;;7.57;5.00;;;10.30;99.90;;;;;;5066590;28;20200;-60
2023/01/10 12:18:47;;;;;;;6.30;4.23;;;10.30;99.90;;;;;;5066417;28;20200;-60
2023/01/10 12:21:17;;;;;;;4.33;3.53;;;10.30;99.90;;;;;;5066317;28;20208;-60
2023/01/10 12:23:46;;;;;;;6.60;3.43;;;10.30;99.90;;;;;;5066507;28;20199;-60
2023/01/10 12:26:13;;;;;;;4.50;3.40;;;10.40;99.90;;;;;;5067666;28;20229;-60
2023/01/10 12:28:48;;;;;;;5.67;3.50;;;10.40;99.90;;;;;;5065672;28;20204;-60
2023/01/10 12:31:17;;;;;;;8.23;4.47;;;10.50;99.90;;;;;;5068395;28;20300;-59
2023/01/10 12:33:48;;;;;;;4.93;3.90;;;10.50;99.90;;;;;;5066739;28;20584;-60
2023/01/10 12:36:28;;;;;;;5.50;3.97;;;10.50;99.90;;;;;;5069098;28;20199;-60
2023/01/10 12:39:05;;;;;;;8.97;5.40;;;10.60;99.90;;;;;;5068195;28;20202;-60
2023/01/10 12:44:34;;;;;;;7.67;5.10;;;10.60;99.90;;;;;;5074922;28;20199;-60
2023/01/10 12:47:09;;;;;;;6.50;4.73;;;10.60;99.90;;;;;;5072386;28;20219;-60
2023/01/10 12:49:44;;;;;;;6.07;3.97;;;10.60;99.90;;;;;;5072461;28;20199;-60
2023/01/10 12:52:18;;;;;;;4.73;3.60;;;10.70;99.90;;;;;;5072826;28;20541;-60
2023/01/10 12:54:47;;;;;;;5.80;3.83;;;10.60;99.90;;;;;;5073559;28;20664;-60
2023/01/10 12:57:22;;;;;;;6.60;5.07;;;10.70;99.90;;;;;;5073571;28;20246;-60
2023/01/10 12:59:51;;;;;;;6.17;3.80;;;10.70;99.90;;;;;;5068164;28;20277;-60
2023/01/10 13:02:22;;;;;;;10.17;5.13;;;10.70;99.90;;;;;;5073642;28;20203;-60
2023/01/10 13:04:55;;;;;;;6.93;5.07;;;10.70;99.90;;;;;;5069730;28;20274;-60
2023/01/10 13:07:27;;;;;;;11.43;5.87;;;10.70;99.90;;;;;;5073573;28;20201;-61
2023/01/10 13:09:54;;;;;;;7.50;4.77;;;10.70;99.90;;;;;;5073176;28;20327;-60
2023/01/10 13:12:32;;;;;;;11.57;4.27;;;10.70;99.90;;;;;;5072082;28;20193;-60
2023/01/10 13:15:06;;;;;;;4.10;3.70;;;10.60;99.90;;;;;;5070242;28;20203;-61
2023/01/10 13:17:43;;;;;;;6.37;3.93;;;10.60;99.90;;;;;;5072110;28;20193;-61
2023/01/10 13:20:44;;;;;;;6.13;4.30;;;10.60;99.90;;;;;;5072351;28;20191;-61
2023/01/10 13:23:25;;;;;;;8.80;5.80;;;10.60;99.90;;;;;;5070326;28;20279;-61
2023/01/10 13:25:57;;;;;;;11.97;7.70;;;10.60;99.90;;;;;;5070817;28;20692;-61
2023/01/10 13:28:27;;;;;;;8.13;5.23;;;10.60;99.90;;;;;;5072712;28;20205;-60